createdAt,value
2022-10-05T00:06:46.069Z,7.98
2022-10-05T00:20:57.947Z,8.01
2022-10-05T00:35:10.913Z,7.99
2022-10-05T00:49:25.330Z,7.72
2022-10-05T01:03:33.784Z,7.59
2022-10-05T01:17:45.372Z,7.54
2022-10-05T01:31:58.587Z,7.4
2022-10-05T01:46:11.867Z,7.2
2022-10-05T02:00:21.527Z,6.84
2022-10-05T02:14:34.418Z,6.96
2022-10-05T02:28:47.700Z,6.85
2022-10-05T02:42:59.178Z,6.38
2022-10-05T02:57:11.889Z,6.22
2022-10-05T03:11:21.643Z,6.16
2022-10-05T03:25:33.865Z,5.89
2022-10-05T03:39:46.117Z,5.79
2022-10-05T03:53:59.102Z,6.08
2022-10-05T04:08:13.646Z,6.37
2022-10-05T04:22:26.909Z,6.79
2022-10-05T04:36:40.145Z,7.37
2022-10-05T04:50:53.971Z,8.05
2022-10-05T05:05:07.816Z,8.24
2022-10-05T05:19:21.113Z,8.42
2022-10-05T05:33:34.495Z,8.86
2022-10-05T05:47:48.309Z,9.19
2022-10-05T06:02:00.968Z,9.3
2022-10-05T06:16:13.951Z,9.37
2022-10-05T06:30:26.272Z,9.41
2022-10-05T06:44:39.604Z,9.63
2022-10-05T06:58:52.103Z,10.13
2022-10-05T07:08:25.136Z,10.16
2022-10-05T07:13:03.427Z,10.08
2022-10-05T07:27:17.683Z,9.98
2022-10-05T07:41:26.810Z,10.11
2022-10-05T07:55:42.347Z,10.82
2022-10-05T07:57:18.320Z,11.21
2022-10-05T08:06:52.580Z,11.3
2022-10-05T08:09:58.263Z,11.83
2022-10-05T08:10:01.502Z,11.91
2022-10-05T08:11:06.365Z,12.02
2022-10-05T08:12:10.574Z,12.10
2022-10-05T08:13:12.012Z,12.19
2022-10-05T08:14:14.471Z,12.24
2022-10-05T08:15:18.530Z,12.31
2022-10-05T08:24:49.674Z,12.55
2022-10-05T08:34:24.269Z,12.74
2022-10-05T08:35:28.401Z,12.79
2022-10-05T08:45:00.372Z,13.07
2022-10-05T08:46:05.507Z,13.14
2022-10-05T08:47:09.312Z,13.21
2022-10-05T08:48:11.617Z,13.30
2022-10-05T08:49:16.691Z,13.36
2022-10-05T08:50:19.100Z,13.42
2022-10-05T08:51:21.519Z,13.50
2022-10-05T08:52:24.023Z,13.55
2022-10-05T08:53:26.457Z,13.59
2022-10-05T08:54:30.484Z,13.66
2022-10-05T08:55:34.460Z,13.72
2022-10-05T08:56:38.344Z,13.79
2022-10-05T08:57:40.654Z,13.86
2022-10-05T08:58:43.175Z,13.96
2022-10-05T08:59:45.603Z,14.03
2022-10-05T09:00:48.991Z,14.09
2022-10-05T09:01:51.393Z,14.14
2022-10-05T09:02:53.788Z,14.21
2022-10-05T09:03:56.107Z,14.25
2022-10-05T09:04:58.549Z,14.30
2022-10-05T09:06:00.996Z,14.35
2022-10-05T09:07:06.108Z,14.41
2022-10-05T09:08:08.379Z,14.48
2022-10-05T09:09:10.896Z,14.54
2022-10-05T09:10:13.311Z,14.59
2022-10-05T09:11:17.375Z,14.64
2022-10-05T09:12:19.698Z,14.71
2022-10-05T09:13:22.111Z,14.77
2022-10-05T09:14:26.174Z,14.81
2022-10-05T09:15:30.048Z,14.87
2022-10-05T09:25:01.013Z,14.98
2022-10-05T09:26:05.147Z,15.05
2022-10-05T09:27:07.537Z,15.11
2022-10-05T09:28:10.070Z,15.18
2022-10-05T09:29:14.158Z,15.25
2022-10-05T09:30:16.491Z,15.34
2022-10-05T09:31:19.095Z,15.41
2022-10-05T09:32:21.432Z,15.48
2022-10-05T09:33:23.837Z,15.58
2022-10-05T09:34:26.354Z,15.67
2022-10-05T09:35:31.425Z,15.75
2022-10-05T09:36:33.709Z,15.83
2022-10-05T09:37:36.199Z,15.89
2022-10-05T09:38:38.677Z,15.97
2022-10-05T09:39:41.109Z,16.01
2022-10-05T09:40:43.568Z,16.04
2022-10-05T09:41:46.313Z,16.08
2022-10-05T09:42:48.522Z,16.14
2022-10-05T09:43:51.003Z,16.16
2022-10-05T09:44:53.461Z,16.22
2022-10-05T09:45:55.929Z,16.24
2022-10-05T09:46:58.353Z,16.28
2022-10-05T09:48:02.443Z,16.30
2022-10-05T09:49:05.803Z,16.32
2022-10-05T09:51:10.703Z,16.40
2022-10-05T09:52:18.728Z,16.46
2022-10-05T09:53:18.771Z,16.50
2022-10-05T09:54:21.069Z,16.59
2022-10-05T09:55:25.109Z,16.63
2022-10-05T09:57:30.012Z,16.71
2022-10-05T09:58:32.464Z,16.70
2022-10-05T09:59:36.565Z,16.71
2022-10-05T10:00:38.948Z,16.72
2022-10-05T10:01:41.471Z,16.74
2022-10-05T10:02:45.617Z,16.75
2022-10-05T10:03:49.360Z,16.77
2022-10-05T10:04:53.301Z,16.79
2022-10-05T10:05:55.746Z,16.82
2022-10-05T10:06:58.229Z,16.84
2022-10-05T10:09:04.866Z,16.86
2022-10-05T10:10:07.142Z,16.87
2022-10-05T10:11:11.265Z,16.86
2022-10-05T10:14:18.544Z,16.84
2022-10-05T10:15:20.994Z,16.83
2022-10-05T10:16:25.069Z,16.84
2022-10-05T10:17:27.401Z,16.86
2022-10-05T10:18:29.834Z,16.88
2022-10-05T10:19:32.304Z,16.86
2022-10-05T10:20:34.801Z,16.89
2022-10-05T10:21:37.241Z,16.91
2022-10-05T10:22:43.179Z,16.90
2022-10-05T10:23:44.775Z,16.89
2022-10-05T10:24:47.050Z,16.90
2022-10-05T10:26:51.989Z,16.91
2022-10-05T10:27:54.526Z,16.93
2022-10-05T10:28:56.854Z,16.90
2022-10-05T10:29:59.472Z,16.91
2022-10-05T10:31:03.495Z,16.93
2022-10-05T10:32:05.837Z,16.97
2022-10-05T10:33:08.309Z,16.98
2022-10-05T10:34:11.152Z,17.02
2022-10-05T10:35:13.641Z,17.06
2022-10-05T10:36:16.123Z,17.09
2022-10-05T10:37:18.667Z,17.15
2022-10-05T10:38:21.079Z,17.21
2022-10-05T10:39:25.209Z,17.27
2022-10-05T10:41:29.915Z,17.36
2022-10-05T10:42:32.372Z,17.43
2022-10-05T10:43:36.545Z,17.48
2022-10-05T10:44:40.541Z,17.46
2022-10-05T10:45:42.901Z,17.54
2022-10-05T10:46:47.327Z,17.62
2022-10-05T10:47:50.896Z,17.65
2022-10-05T10:48:55.235Z,17.70
2022-10-05T10:49:57.487Z,17.75
2022-10-05T10:51:01.619Z,17.81
2022-10-05T10:52:04.025Z,17.84
2022-10-05T10:53:06.452Z,17.86
2022-10-05T10:54:08.847Z,17.82
2022-10-05T10:55:13.015Z,17.79
2022-10-05T10:57:17.868Z,17.80
2022-10-05T10:58:22.096Z,17.79
2022-10-05T10:59:25.480Z,17.82
2022-10-05T11:00:26.735Z,17.76
2022-10-05T11:01:29.236Z,17.78
2022-10-05T11:02:33.364Z,17.82
2022-10-05T11:03:37.702Z,17.83
2022-10-05T11:04:40.060Z,17.89
2022-10-05T11:05:45.113Z,17.90
2022-10-05T11:06:44.911Z,17.92
2022-10-05T11:07:47.388Z,17.89
2022-10-05T11:08:49.792Z,17.91
2022-10-05T11:09:52.241Z,17.90
2022-10-05T11:10:54.762Z,17.87
2022-10-05T11:11:58.828Z,17.79
2022-10-05T11:13:02.738Z,17.80
2022-10-05T11:15:09.004Z,17.78
2022-10-05T11:17:17.010Z,17.70
2022-10-05T11:18:19.297Z,17.66
2022-10-05T11:19:24.819Z,17.61
2022-10-05T11:20:25.814Z,17.59
2022-10-05T11:21:28.134Z,17.54
2022-10-05T11:22:30.621Z,17.50
2022-10-05T11:23:38.716Z,17.51
2022-10-05T11:24:36.976Z,17.47
2022-10-05T11:25:41.021Z,17.42
2022-10-05T11:26:43.340Z,17.45
2022-10-05T11:27:46.764Z,17.43
2022-10-05T11:28:50.743Z,17.46
2022-10-05T11:32:01.077Z,17.44
2022-10-05T11:33:03.390Z,17.43
2022-10-05T11:34:05.845Z,17.45
2022-10-05T11:35:08.306Z,17.41
2022-10-05T11:36:12.469Z,17.42
2022-10-05T11:37:16.373Z,17.43
2022-10-05T11:38:21.321Z,17.45
2022-10-05T11:39:23.637Z,17.49
2022-10-05T11:40:27.710Z,17.57
2022-10-05T11:41:30.020Z,17.58
2022-10-05T11:42:32.445Z,17.60
2022-10-05T11:43:36.489Z,17.61
2022-10-05T11:44:38.833Z,17.63
2022-10-05T11:45:41.327Z,17.60
2022-10-05T11:46:43.884Z,17.61
2022-10-05T11:47:46.297Z,17.63
2022-10-05T11:48:48.798Z,17.60
2022-10-05T11:49:51.256Z,17.58
2022-10-05T11:50:56.292Z,17.59
2022-10-05T11:51:58.561Z,17.54
2022-10-05T11:53:00.962Z,17.57
2022-10-05T11:54:05.030Z,17.56
2022-10-05T11:56:09.788Z,17.57
2022-10-05T11:57:12.273Z,17.56
2022-10-05T11:58:14.689Z,17.54
2022-10-05T11:59:18.803Z,17.53
2022-10-05T12:00:21.098Z,17.51
2022-10-05T12:01:25.136Z,17.48
2022-10-05T12:02:29.229Z,17.51
2022-10-05T12:03:31.571Z,17.49
2022-10-05T12:04:33.968Z,17.52
2022-10-05T12:05:38.010Z,17.57
2022-10-05T12:06:40.418Z,17.58
2022-10-05T12:07:42.900Z,17.59
2022-10-05T12:08:45.363Z,17.60
2022-10-05T12:09:48.833Z,17.63
2022-10-05T12:10:51.210Z,17.65
2022-10-05T12:11:57.831Z,17.63
2022-10-05T12:12:58.123Z,17.68
2022-10-05T12:14:00.089Z,17.74
2022-10-05T12:15:04.198Z,17.76
2022-10-05T12:16:08.176Z,17.82
2022-10-05T12:17:12.111Z,17.87
2022-10-05T12:18:16.078Z,17.89
2022-10-05T12:19:20.071Z,17.98
2022-10-05T12:20:22.403Z,18.03
2022-10-05T12:21:25.074Z,18.12
2022-10-05T12:22:27.615Z,18.15
2022-10-05T12:23:31.730Z,18.18
2022-10-05T12:24:35.672Z,18.24
2022-10-05T12:25:37.967Z,18.32
2022-10-05T12:26:40.493Z,18.35
2022-10-05T12:27:42.948Z,18.37
2022-10-05T12:28:47.034Z,18.41
2022-10-05T12:29:50.543Z,18.47
2022-10-05T12:30:52.805Z,18.49
2022-10-05T12:31:55.179Z,18.51
2022-10-05T12:33:01.786Z,18.53
2022-10-05T12:34:00.243Z,18.57
2022-10-05T12:35:03.716Z,18.59
2022-10-05T12:36:07.717Z,18.64
2022-10-05T12:37:11.654Z,18.67
2022-10-05T12:38:15.661Z,18.69
2022-10-05T12:39:19.101Z,18.74
2022-10-05T12:40:23.130Z,18.79
2022-10-05T12:41:25.503Z,18.81
2022-10-05T12:43:32.053Z,18.83
2022-10-05T12:44:34.546Z,18.87
2022-10-05T12:45:36.994Z,18.89
2022-10-05T12:46:40.941Z,18.91
2022-10-05T12:47:44.931Z,18.95
2022-10-05T12:48:47.358Z,18.96
2022-10-05T12:49:49.820Z,18.99
2022-10-05T12:51:54.729Z,19.01
2022-10-05T12:52:57.290Z,19.04
2022-10-05T12:53:59.740Z,19.06
2022-10-05T12:55:03.817Z,19.12
2022-10-05T12:56:06.185Z,19.15
2022-10-05T12:57:08.623Z,19.18
2022-10-05T12:58:11.123Z,19.24
2022-10-05T12:59:13.629Z,19.26
2022-10-05T13:00:21.851Z,19.27
2022-10-05T13:01:21.640Z,19.31
2022-10-05T13:02:23.963Z,19.32
2022-10-05T13:03:26.477Z,19.33
2022-10-05T13:08:57.987Z,19.50
2022-10-05T13:09:44.119Z,19.55
2022-10-05T13:11:50.606Z,19.55
2022-10-05T13:23:13.575Z,19.68
2022-10-05T13:37:24.666Z,19.73
2022-10-05T13:51:38.066Z,19.81
2022-10-05T14:05:55.671Z,19.92
2022-10-05T14:20:06.444Z,20.11
2022-10-05T14:34:21.731Z,21.55
2022-10-05T14:48:52.190Z,22.02
2022-10-05T14:49:35.467Z,22.06
2022-10-05T14:50:37.849Z,22.12
2022-10-05T14:51:40.335Z,22.14
2022-10-05T14:52:42.856Z,22.16
2022-10-05T14:53:45.383Z,22.17
2022-10-05T14:54:47.751Z,22.22
2022-10-05T14:55:50.251Z,22.25
2022-10-05T14:56:52.724Z,22.32
2022-10-05T14:57:55.259Z,22.38
2022-10-05T14:58:57.779Z,22.44
2022-10-05T15:00:00.256Z,22.53
2022-10-05T15:01:04.471Z,22.61
2022-10-05T15:02:06.777Z,22.72
2022-10-05T15:03:09.256Z,22.81
2022-10-05T15:04:13.363Z,22.93
2022-10-05T15:05:17.447Z,23.05
2022-10-05T15:06:19.957Z,23.15
2022-10-05T15:07:22.544Z,23.24
2022-10-05T15:08:25.159Z,23.33
2022-10-05T15:09:27.603Z,23.41
2022-10-05T15:10:31.691Z,23.48
2022-10-05T15:11:34.072Z,23.54
2022-10-05T15:12:38.187Z,23.58
2022-10-05T15:13:40.862Z,23.61
2022-10-05T15:14:43.179Z,23.62
2022-10-05T15:15:45.680Z,23.65
2022-10-05T15:16:49.855Z,23.74
2022-10-05T15:17:53.759Z,23.78
2022-10-05T15:18:57.677Z,23.85
2022-10-05T15:20:01.665Z,23.88
2022-10-05T15:21:04.026Z,23.95
2022-10-05T15:22:06.534Z,24.03
2022-10-05T15:23:09.071Z,24.07
2022-10-05T15:24:14.168Z,24.09
2022-10-05T15:25:16.467Z,24.16
2022-10-05T15:26:20.530Z,24.22
2022-10-05T15:27:22.947Z,24.27
2022-10-05T15:28:27.057Z,24.35
2022-10-05T15:29:29.278Z,24.39
2022-10-05T15:30:31.831Z,24.43
2022-10-05T15:31:23.188Z,23.06
2022-10-05T15:45:34.081Z,22.11
2022-10-05T15:59:46.008Z,21.69
2022-10-05T16:13:59.150Z,21.18
2022-10-05T16:28:11.348Z,20.57
2022-10-05T16:42:22.951Z,19.8
2022-10-05T16:56:35.104Z,19.11
2022-10-05T17:10:47.412Z,18.54
2022-10-05T17:24:59.460Z,17.9
2022-10-05T17:39:11.474Z,17.45
2022-10-05T17:53:23.740Z,17.16
2022-10-05T18:07:37.149Z,17
2022-10-05T18:21:49.528Z,16.82
2022-10-05T18:36:01.700Z,16.56
2022-10-05T18:50:16.454Z,16.32
2022-10-05T19:04:24.682Z,16.07
2022-10-05T19:18:37.241Z,15.95
2022-10-05T19:32:50.197Z,15.84
2022-10-05T19:47:04.401Z,15.91
2022-10-05T20:01:14.148Z,15.84
2022-10-05T20:15:27.954Z,15.68
2022-10-05T20:29:39.787Z,15.47
2022-10-05T20:43:55.857Z,15.37
2022-10-05T20:58:02.510Z,15.28
2022-10-05T21:12:15.375Z,15.2
2022-10-05T21:26:27.448Z,14.98
2022-10-05T21:40:40.364Z,14.65
2022-10-05T21:54:52.277Z,14.5
2022-10-05T22:09:04.655Z,14.41
2022-10-05T22:23:17.503Z,14.5
2022-10-05T22:37:32.497Z,14.44
2022-10-05T22:51:40.681Z,14.33
2022-10-05T23:05:52.720Z,14.37
2022-10-05T23:34:17.207Z,14.22
2022-10-05T23:48:30.357Z,14.14
